Time,TemperatureF,DewpointF,PressureIn,WindDirection,WindDirectionDegrees,WindSpeedMPH,WindSpeedGustMPH,Humidity,HourlyPrecipIn,Conditions,Clouds,dailyrainin,SoftwareType,DateUTC
2014-12-19 00:02:00,33.8,-2.9,30.19,North,-999,-999.0,-999.0,20,-99.99,,,-99.99,meteohub,2014-12-19 05:02:00,
2014-12-19 00:07:00,34.0,-2.7,30.19,North,-999,-999.0,-999.0,20,-99.99,,,-99.99,meteohub,2014-12-19 05:07:00,
2014-12-19 00:12:00,34.0,-2.7,30.19,North,-999,-999.0,-999.0,20,-99.99,,,-99.99,meteohub,2014-12-19 05:12:00,
2014-12-19 00:17:00,34.0,-2.7,30.19,North,-999,-999.0,-999.0,20,-99.99,,,-99.99,meteohub,2014-12-19 05:17:00,
2014-12-19 00:22:00,33.8,-2.9,30.19,North,-999,-999.0,-999.0,20,-99.99,,,-99.99,meteohub,2014-12-19 05:22:00,
2014-12-19 00:27:00,33.6,-3.1,30.19,North,-999,-999.0,-999.0,20,-99.99,,,-99.99,meteohub,2014-12-19 05:27:00,
2014-12-19 00:32:00,33.6,-3.1,30.19,North,-999,-999.0,-999.0,20,-99.99,,,-99.99,meteohub,2014-12-19 05:32:00,
2014-12-19 00:37:00,33.6,-3.1,30.19,North,-999,-999.0,-999.0,20,-99.99,,,-99.99,meteohub,2014-12-19 05:37:00,
2014-12-19 00:42:00,33.8,-2.9,30.19,North,-999,-999.0,-999.0,20,-99.99,,,-99.99,meteohub,2014-12-19 05:42:00,
2014-12-19 00:47:00,33.8,-2.9,30.19,North,-999,-999.0,-999.0,20,-99.99,,,-99.99,meteohub,2014-12-19 05:47:00,
2014-12-19 00:52:00,33.8,-2.9,30.19,North,-999,-999.0,-999.0,20,-99.99,,,-99.99,meteohub,2014-12-19 05:52:00,
2014-12-19 00:57:00,33.8,-2.9,30.19,North,-999,-999.0,-999.0,20,-99.99,,,-99.99,meteohub,2014-12-19 05:57:00,
2014-12-19 01:02:00,33.8,-2.9,30.19,North,-999,-999.0,-999.0,20,-99.99,,,-99.99,meteohub,2014-12-19 06:02:00,
2014-12-19 01:07:00,33.8,-2.9,30.19,North,-999,-999.0,-999.0,20,-99.99,,,-99.99,meteohub,2014-12-19 06:07:00,
2014-12-19 01:12:00,33.8,-2.9,30.19,North,-999,-999.0,-999.0,20,-99.99,,,-99.99,meteohub,2014-12-19 06:12:00,
2014-12-19 01:17:00,33.6,-3.1,30.19,North,-999,-999.0,-999.0,20,-99.99,,,-99.99,meteohub,2014-12-19 06:17:00,
2014-12-19 01:22:00,33.6,-3.1,30.19,North,-999,-999.0,-999.0,20,-99.99,,,-99.99,meteohub,2014-12-19 06:22:00,
2014-12-19 01:27:00,33.6,-3.1,30.16,North,-999,-999.0,-999.0,20,-99.99,,,-99.99,meteohub,2014-12-19 06:27:00,
2014-12-19 01:33:00,33.4,-3.3,30.16,North,-999,-999.0,-999.0,20,-99.99,,,-99.99,meteohub,2014-12-19 06:33:00,
2014-12-19 01:38:00,33.4,-3.3,30.16,North,-999,-999.0,-999.0,20,-99.99,,,-99.99,meteohub,2014-12-19 06:38:00,
2014-12-19 01:43:00,33.4,-3.3,30.16,North,-999,-999.0,-999.0,20,-99.99,,,-99.99,meteohub,2014-12-19 06:43:00,
2014-12-19 01:48:00,33.3,-3.3,30.16,North,-999,-999.0,-999.0,20,-99.99,,,-99.99,meteohub,2014-12-19 06:48:00,
2014-12-19 01:53:00,33.3,-3.3,30.16,North,-999,-999.0,-999.0,20,-99.99,,,-99.99,meteohub,2014-12-19 06:53:00,
2014-12-19 01:58:00,33.3,-3.3,30.16,North,-999,-999.0,-999.0,20,-99.99,,,-99.99,meteohub,2014-12-19 06:58:00,
2014-12-19 02:03:00,33.3,-3.3,30.16,North,-999,-999.0,-999.0,20,-99.99,,,-99.99,meteohub,2014-12-19 07:03:00,
2014-12-19 02:08:00,33.3,-3.3,30.16,North,-999,-999.0,-999.0,20,-99.99,,,-99.99,meteohub,2014-12-19 07:08:00,
2014-12-19 02:13:00,33.3,-3.3,30.19,North,-999,-999.0,-999.0,20,-99.99,,,-99.99,meteohub,2014-12-19 07:13:00,
2014-12-19 02:18:00,33.3,-3.3,30.19,North,-999,-999.0,-999.0,20,-99.99,,,-99.99,meteohub,2014-12-19 07:18:00,
2014-12-19 02:23:00,33.3,-3.3,30.19,North,-999,-999.0,-999.0,20,-99.99,,,-99.99,meteohub,2014-12-19 07:23:00,
2014-12-19 02:28:00,33.1,-3.5,30.19,North,-999,-999.0,-999.0,20,-99.99,,,-99.99,meteohub,2014-12-19 07:28:00,
2014-12-19 02:33:00,33.1,-3.5,30.19,North,-999,-999.0,-999.0,20,-99.99,,,-99.99,meteohub,2014-12-19 07:33:00,
2014-12-19 02:38:00,32.9,-3.6,30.19,North,-999,-999.0,-999.0,20,-99.99,,,-99.99,meteohub,2014-12-19 07:38:00,
2014-12-19 02:43:00,32.9,-3.6,30.19,North,-999,-999.0,-999.0,20,-99.99,,,-99.99,meteohub,2014-12-19 07:43:00,
2014-12-19 02:48:00,32.9,-3.6,30.19,North,-999,-999.0,-999.0,20,-99.99,,,-99.99,meteohub,2014-12-19 07:48:00,
2014-12-19 02:53:00,32.7,-3.8,30.20,North,-999,-999.0,-999.0,20,-99.99,,,-99.99,meteohub,2014-12-19 07:53:00,
2014-12-19 02:58:00,32.7,-3.8,30.20,North,-999,-999.0,-999.0,20,-99.99,,,-99.99,meteohub,2014-12-19 07:58:00,
2014-12-19 03:03:00,32.7,-3.8,30.20,North,-999,-999.0,-999.0,20,-99.99,,,-99.99,meteohub,2014-12-19 08:03:00,
2014-12-19 03:08:00,32.7,-3.8,30.20,North,-999,-999.0,-999.0,20,-99.99,,,-99.99,meteohub,2014-12-19 08:08:00,
2014-12-19 03:13:00,32.7,-3.8,30.20,North,-999,-999.0,-999.0,20,-99.99,,,-99.99,meteohub,2014-12-19 08:13:00,
2014-12-19 03:18:00,32.7,-3.8,30.20,North,-999,-999.0,-999.0,20,-99.99,,,-99.99,meteohub,2014-12-19 08:18:00,
2014-12-19 03:23:00,32.7,-3.8,30.20,North,-999,-999.0,-999.0,20,-99.99,,,-99.99,meteohub,2014-12-19 08:23:00,
2014-12-19 03:28:00,32.7,-3.8,30.20,North,-999,-999.0,-999.0,20,-99.99,,,-99.99,meteohub,2014-12-19 08:28:00,
2014-12-19 03:33:00,32.5,-4.0,30.20,North,-999,-999.0,-999.0,20,-99.99,,,-99.99,meteohub,2014-12-19 08:33:00,
2014-12-19 03:38:00,32.5,-4.0,30.20,North,-999,-999.0,-999.0,20,-99.99,,,-99.99,meteohub,2014-12-19 08:38:00,
2014-12-19 03:43:00,32.5,-4.0,30.17,North,-999,-999.0,-999.0,20,-99.99,,,-99.99,meteohub,2014-12-19 08:43:00,
2014-12-19 03:48:00,32.5,-4.0,30.17,North,-999,-999.0,-999.0,20,-99.99,,,-99.99,meteohub,2014-12-19 08:48:00,
2014-12-19 03:53:00,32.4,-4.2,30.17,North,-999,-999.0,-999.0,20,-99.99,,,-99.99,meteohub,2014-12-19 08:53:00,
2014-12-19 03:58:00,32.2,-4.2,30.17,North,-999,-999.0,-999.0,20,-99.99,,,-99.99,meteohub,2014-12-19 08:58:00,
2014-12-19 04:03:00,32.2,-4.2,30.17,North,-999,-999.0,-999.0,20,-99.99,,,-99.99,meteohub,2014-12-19 09:03:00,
2014-12-19 04:08:00,32.2,-4.2,30.17,North,-999,-999.0,-999.0,20,-99.99,,,-99.99,meteohub,2014-12-19 09:08:00,
2014-12-19 04:13:00,32.0,-4.4,30.17,North,-999,-999.0,-999.0,20,-99.99,,,-99.99,meteohub,2014-12-19 09:13:00,
2014-12-19 04:18:00,31.8,-4.7,30.17,North,-999,-999.0,-999.0,20,-99.99,,,-99.99,meteohub,2014-12-19 09:18:00,
2014-12-19 04:23:00,31.8,-4.7,30.17,North,-999,-999.0,-999.0,20,-99.99,,,-99.99,meteohub,2014-12-19 09:23:00,
2014-12-19 04:28:00,31.6,-4.7,30.17,North,-999,-999.0,-999.0,20,-99.99,,,-99.99,meteohub,2014-12-19 09:28:00,
2014-12-19 04:33:00,31.6,-4.7,30.17,North,-999,-999.0,-999.0,20,-99.99,,,-99.99,meteohub,2014-12-19 09:33:00,
2014-12-19 04:38:00,31.5,-4.9,30.17,North,-999,-999.0,-999.0,20,-99.99,,,-99.99,meteohub,2014-12-19 09:38:00,
2014-12-19 04:43:00,31.5,-4.9,30.17,North,-999,-999.0,-999.0,20,-99.99,,,-99.99,meteohub,2014-12-19 09:43:00,
2014-12-19 04:48:00,31.5,-4.9,30.17,North,-999,-999.0,-999.0,20,-99.99,,,-99.99,meteohub,2014-12-19 09:48:00,
2014-12-19 04:53:00,31.3,-5.1,30.17,North,-999,-999.0,-999.0,20,-99.99,,,-99.99,meteohub,2014-12-19 09:53:00,
2014-12-19 04:58:00,31.1,-5.3,30.21,North,-999,-999.0,-999.0,20,-99.99,,,-99.99,meteohub,2014-12-19 09:58:00,
2014-12-19 05:03:00,31.1,-5.3,30.21,North,-999,-999.0,-999.0,20,-99.99,,,-99.99,meteohub,2014-12-19 10:03:00,
2014-12-19 05:08:00,31.1,-5.3,30.21,North,-999,-999.0,-999.0,20,-99.99,,,-99.99,meteohub,2014-12-19 10:08:00,
2014-12-19 05:13:00,31.1,-5.3,30.21,North,-999,-999.0,-999.0,20,-99.99,,,-99.99,meteohub,2014-12-19 10:13:00,